sensor_id;sensor_type;location;lat;lon;timestamp;temperature;humidity
21259;DHT22;10787;53.364;-1.480;2023-02-13T00:00:23;6.80;99.90
21259;DHT22;10787;53.364;-1.480;2023-02-13T00:02:50;6.80;99.90
21259;DHT22;10787;53.364;-1.480;2023-02-13T00:05:15;6.80;99.90
21259;DHT22;10787;53.364;-1.480;2023-02-13T00:07:41;6.80;99.90
21259;DHT22;10787;53.364;-1.480;2023-02-13T00:10:08;6.80;99.90
21259;DHT22;10787;53.364;-1.480;2023-02-13T00:12:34;6.80;99.90
21259;DHT22;10787;53.364;-1.480;2023-02-13T00:15:00;6.80;99.90
21259;DHT22;10787;53.364;-1.480;2023-02-13T00:17:26;6.80;99.90
21259;DHT22;10787;53.364;-1.480;2023-02-13T00:19:52;6.80;99.90
21259;DHT22;10787;53.364;-1.480;2023-02-13T00:22:17;6.80;99.90
21259;DHT22;10787;53.364;-1.480;2023-02-13T00:24:44;6.80;99.90
21259;DHT22;10787;53.364;-1.480;2023-02-13T00:27:10;6.80;99.90
21259;DHT22;10787;53.364;-1.480;2023-02-13T00:29:36;6.80;99.90
21259;DHT22;10787;53.364;-1.480;2023-02-13T00:32:01;6.80;99.90
21259;DHT22;10787;53.364;-1.480;2023-02-13T00:34:27;6.80;99.90
21259;DHT22;10787;53.364;-1.480;2023-02-13T00:36:53;6.80;99.90
21259;DHT22;10787;53.364;-1.480;2023-02-13T00:39:19;6.80;99.90
21259;DHT22;10787;53.364;-1.480;2023-02-13T00:41:44;6.80;99.90
21259;DHT22;10787;53.364;-1.480;2023-02-13T00:44:10;6.80;99.90
21259;DHT22;10787;53.364;-1.480;2023-02-13T00:46:36;6.80;99.90
21259;DHT22;10787;53.364;-1.480;2023-02-13T00:49:03;6.90;99.90
21259;DHT22;10787;53.364;-1.480;2023-02-13T00:51:29;6.90;99.90
21259;DHT22;10787;53.364;-1.480;2023-02-13T00:53:55;6.90;99.90
21259;DHT22;10787;53.364;-1.480;2023-02-13T00:56:21;6.90;99.90
21259;DHT22;10787;53.364;-1.480;2023-02-13T00:58:47;6.90;99.90
21259;DHT22;10787;53.364;-1.480;2023-02-13T01:01:13;6.90;99.90
21259;DHT22;10787;53.364;-1.480;2023-02-13T01:03:39;6.90;99.90
21259;DHT22;10787;53.364;-1.480;2023-02-13T01:06:05;6.90;99.90
21259;DHT22;10787;53.364;-1.480;2023-02-13T01:08:31;6.90;99.90
21259;DHT22;10787;53.364;-1.480;2023-02-13T01:10:58;6.90;99.90
21259;DHT22;10787;53.364;-1.480;2023-02-13T01:13:23;6.90;99.90
21259;DHT22;10787;53.364;-1.480;2023-02-13T01:15:50;6.90;99.90
21259;DHT22;10787;53.364;-1.480;2023-02-13T01:18:18;6.90;99.90
21259;DHT22;10787;53.364;-1.480;2023-02-13T01:20:44;6.90;99.90
21259;DHT22;10787;53.364;-1.480;2023-02-13T01:23:11;6.90;99.90
21259;DHT22;10787;53.364;-1.480;2023-02-13T01:25:41;6.90;99.90
21259;DHT22;10787;53.364;-1.480;2023-02-13T01:28:07;7.00;99.90
21259;DHT22;10787;53.364;-1.480;2023-02-13T01:30:33;7.00;99.90
21259;DHT22;10787;53.364;-1.480;2023-02-13T01:32:59;7.00;99.90
21259;DHT22;10787;53.364;-1.480;2023-02-13T01:35:24;6.90;99.90
21259;DHT22;10787;53.364;-1.480;2023-02-13T01:37:50;6.90;99.90
21259;DHT22;10787;53.364;-1.480;2023-02-13T01:40:16;6.90;99.90
21259;DHT22;10787;53.364;-1.480;2023-02-13T01:42:42;6.90;99.90
21259;DHT22;10787;53.364;-1.480;2023-02-13T01:45:27;6.90;99.90
21259;DHT22;10787;53.364;-1.480;2023-02-13T01:47:59;6.90;99.90
21259;DHT22;10787;53.364;-1.480;2023-02-13T01:53:10;6.90;99.90
21259;DHT22;10787;53.364;-1.480;2023-02-13T01:55:46;7.00;99.90
21259;DHT22;10787;53.364;-1.480;2023-02-13T01:58:16;7.00;99.90
21259;DHT22;10787;53.364;-1.480;2023-02-13T02:00:44;6.90;99.90
21259;DHT22;10787;53.364;-1.480;2023-02-13T02:03:34;6.90;99.90
21259;DHT22;10787;53.364;-1.480;2023-02-13T02:06:02;6.90;99.90
21259;DHT22;10787;53.364;-1.480;2023-02-13T02:08:30;6.90;99.90
21259;DHT22;10787;53.364;-1.480;2023-02-13T02:11:01;6.90;99.90
21259;DHT22;10787;53.364;-1.480;2023-02-13T02:13:29;6.90;99.90
21259;DHT22;10787;53.364;-1.480;2023-02-13T02:15:55;6.90;99.90
21259;DHT22;10787;53.364;-1.480;2023-02-13T02:18:23;6.90;99.90
21259;DHT22;10787;53.364;-1.480;2023-02-13T02:29:07;7.00;99.90
21259;DHT22;10787;53.364;-1.480;2023-02-13T02:34:36;7.00;99.90
21259;DHT22;10787;53.364;-1.480;2023-02-13T02:37:18;7.00;99.90
21259;DHT22;10787;53.364;-1.480;2023-02-13T02:47:53;6.90;99.90
21259;DHT22;10787;53.364;-1.480;2023-02-13T02:50:45;6.90;99.90
21259;DHT22;10787;53.364;-1.480;2023-02-13T02:53:22;6.90;99.90
21259;DHT22;10787;53.364;-1.480;2023-02-13T02:58:47;6.90;99.90
21259;DHT22;10787;53.364;-1.480;2023-02-13T03:01:38;6.90;99.90
21259;DHT22;10787;53.364;-1.480;2023-02-13T03:07:14;6.90;99.90
21259;DHT22;10787;53.364;-1.480;2023-02-13T03:09:51;6.90;99.90
21259;DHT22;10787;53.364;-1.480;2023-02-13T03:13:02;6.90;99.90
21259;DHT22;10787;53.364;-1.480;2023-02-13T03:16:01;6.90;99.90
21259;DHT22;10787;53.364;-1.480;2023-02-13T03:18:51;6.90;99.90
21259;DHT22;10787;53.364;-1.480;2023-02-13T03:21:49;6.90;99.90
21259;DHT22;10787;53.364;-1.480;2023-02-13T03:24:55;6.90;99.90
21259;DHT22;10787;53.364;-1.480;2023-02-13T03:39:08;6.80;99.90
21259;DHT22;10787;53.364;-1.480;2023-02-13T03:41:56;6.80;99.90
21259;DHT22;10787;53.364;-1.480;2023-02-13T03:47:02;6.80;99.90
21259;DHT22;10787;53.364;-1.480;2023-02-13T03:49:53;6.80;99.90
21259;DHT22;10787;53.364;-1.480;2023-02-13T03:55:21;6.70;99.90
21259;DHT22;10787;53.364;-1.480;2023-02-13T03:58:10;6.70;99.90
21259;DHT22;10787;53.364;-1.480;2023-02-13T04:01:00;6.70;99.90
21259;DHT22;10787;53.364;-1.480;2023-02-13T04:06:17;6.60;99.90
21259;DHT22;10787;53.364;-1.480;2023-02-13T04:08:44;6.60;99.90
21259;DHT22;10787;53.364;-1.480;2023-02-13T04:13:58;6.60;99.90
21259;DHT22;10787;53.364;-1.480;2023-02-13T04:16:32;6.60;99.90
21259;DHT22;10787;53.364;-1.480;2023-02-13T04:19:00;6.60;99.90
21259;DHT22;10787;53.364;-1.480;2023-02-13T04:21:26;6.60;99.90
21259;DHT22;10787;53.364;-1.480;2023-02-13T04:23:54;6.60;99.90
21259;DHT22;10787;53.364;-1.480;2023-02-13T04:26:22;6.60;99.90
21259;DHT22;10787;53.364;-1.480;2023-02-13T04:28:48;6.60;99.90
21259;DHT22;10787;53.364;-1.480;2023-02-13T04:31:13;6.60;99.90
21259;DHT22;10787;53.364;-1.480;2023-02-13T04:33:39;6.60;99.90
21259;DHT22;10787;53.364;-1.480;2023-02-13T04:36:05;6.60;99.90
21259;DHT22;10787;53.364;-1.480;2023-02-13T04:38:31;6.60;99.90
21259;DHT22;10787;53.364;-1.480;2023-02-13T04:40:57;6.60;99.90
21259;DHT22;10787;53.364;-1.480;2023-02-13T04:43:23;6.60;99.90
21259;DHT22;10787;53.364;-1.480;2023-02-13T04:45:50;6.60;99.90
21259;DHT22;10787;53.364;-1.480;2023-02-13T04:48:15;6.60;99.90
21259;DHT22;10787;53.364;-1.480;2023-02-13T04:50:41;6.60;99.90
21259;DHT22;10787;53.364;-1.480;2023-02-13T04:53:07;6.60;99.90
21259;DHT22;10787;53.364;-1.480;2023-02-13T04:55:33;6.60;99.90
21259;DHT22;10787;53.364;-1.480;2023-02-13T04:57:59;6.50;99.90
21259;DHT22;10787;53.364;-1.480;2023-02-13T05:00:26;6.60;99.90
21259;DHT22;10787;53.364;-1.480;2023-02-13T05:02:53;6.50;99.90
21259;DHT22;10787;53.364;-1.480;2023-02-13T05:05:24;6.50;99.90
21259;DHT22;10787;53.364;-1.480;2023-02-13T05:07:50;6.50;99.90
21259;DHT22;10787;53.364;-1.480;2023-02-13T05:10:16;6.50;99.90
21259;DHT22;10787;53.364;-1.480;2023-02-13T05:12:41;6.50;99.90
21259;DHT22;10787;53.364;-1.480;2023-02-13T05:15:08;6.50;99.90
21259;DHT22;10787;53.364;-1.480;2023-02-13T05:17:34;6.50;99.90
21259;DHT22;10787;53.364;-1.480;2023-02-13T05:19:59;6.40;99.90
21259;DHT22;10787;53.364;-1.480;2023-02-13T05:22:25;6.40;99.90
21259;DHT22;10787;53.364;-1.480;2023-02-13T05:25:09;6.40;99.90
21259;DHT22;10787;53.364;-1.480;2023-02-13T05:27:35;6.50;99.90
21259;DHT22;10787;53.364;-1.480;2023-02-13T05:30:01;6.40;99.90
21259;DHT22;10787;53.364;-1.480;2023-02-13T05:32:27;6.40;99.90
21259;DHT22;10787;53.364;-1.480;2023-02-13T05:34:52;6.40;99.90
21259;DHT22;10787;53.364;-1.480;2023-02-13T05:37:18;6.40;99.90
21259;DHT22;10787;53.364;-1.480;2023-02-13T05:39:44;6.40;99.90
21259;DHT22;10787;53.364;-1.480;2023-02-13T05:42:10;6.40;99.90
21259;DHT22;10787;53.364;-1.480;2023-02-13T05:44:35;6.40;99.90
21259;DHT22;10787;53.364;-1.480;2023-02-13T05:47:01;6.40;99.90
21259;DHT22;10787;53.364;-1.480;2023-02-13T05:49:27;6.40;99.90
21259;DHT22;10787;53.364;-1.480;2023-02-13T05:51:53;6.40;99.90
21259;DHT22;10787;53.364;-1.480;2023-02-13T05:54:18;6.40;99.90
21259;DHT22;10787;53.364;-1.480;2023-02-13T05:56:44;6.40;99.90
21259;DHT22;10787;53.364;-1.480;2023-02-13T05:59:11;6.40;99.90
21259;DHT22;10787;53.364;-1.480;2023-02-13T06:01:37;6.40;99.90
21259;DHT22;10787;53.364;-1.480;2023-02-13T06:04:03;6.40;99.90
21259;DHT22;10787;53.364;-1.480;2023-02-13T06:06:52;6.40;99.90
21259;DHT22;10787;53.364;-1.480;2023-02-13T06:09:17;6.40;99.90
21259;DHT22;10787;53.364;-1.480;2023-02-13T06:11:43;6.40;99.90
21259;DHT22;10787;53.364;-1.480;2023-02-13T06:14:10;6.40;99.90
21259;DHT22;10787;53.364;-1.480;2023-02-13T06:16:35;6.40;99.90
21259;DHT22;10787;53.364;-1.480;2023-02-13T06:19:01;6.40;99.90
21259;DHT22;10787;53.364;-1.480;2023-02-13T06:21:27;6.40;99.90
21259;DHT22;10787;53.364;-1.480;2023-02-13T06:23:53;6.40;99.90
21259;DHT22;10787;53.364;-1.480;2023-02-13T06:26:19;6.40;99.90
21259;DHT22;10787;53.364;-1.480;2023-02-13T06:28:44;6.40;99.90
21259;DHT22;10787;53.364;-1.480;2023-02-13T06:31:10;6.50;99.90
21259;DHT22;10787;53.364;-1.480;2023-02-13T06:33:36;6.60;99.90
21259;DHT22;10787;53.364;-1.480;2023-02-13T06:36:02;6.80;99.90
21259;DHT22;10787;53.364;-1.480;2023-02-13T06:38:28;7.00;99.90
21259;DHT22;10787;53.364;-1.480;2023-02-13T06:40:59;7.00;99.90
21259;DHT22;10787;53.364;-1.480;2023-02-13T06:43:25;7.00;99.90
21259;DHT22;10787;53.364;-1.480;2023-02-13T06:45:51;7.10;99.90
21259;DHT22;10787;53.364;-1.480;2023-02-13T06:48:18;7.00;99.90
21259;DHT22;10787;53.364;-1.480;2023-02-13T06:50:44;6.90;99.90
21259;DHT22;10787;53.364;-1.480;2023-02-13T06:53:10;6.90;99.90
21259;DHT22;10787;53.364;-1.480;2023-02-13T06:55:36;6.80;99.90
21259;DHT22;10787;53.364;-1.480;2023-02-13T06:58:04;6.70;99.90
21259;DHT22;10787;53.364;-1.480;2023-02-13T07:00:30;6.70;99.90
21259;DHT22;10787;53.364;-1.480;2023-02-13T07:03:01;6.70;99.90
21259;DHT22;10787;53.364;-1.480;2023-02-13T07:05:27;6.60;99.90
21259;DHT22;10787;53.364;-1.480;2023-02-13T07:07:53;6.60;99.90
21259;DHT22;10787;53.364;-1.480;2023-02-13T07:10:19;6.60;99.90
21259;DHT22;10787;53.364;-1.480;2023-02-13T07:12:45;6.60;99.90
21259;DHT22;10787;53.364;-1.480;2023-02-13T07:15:11;6.60;99.90
21259;DHT22;10787;53.364;-1.480;2023-02-13T07:17:37;6.50;99.90
21259;DHT22;10787;53.364;-1.480;2023-02-13T07:20:04;6.60;99.90
21259;DHT22;10787;53.364;-1.480;2023-02-13T07:22:31;6.50;99.90
21259;DHT22;10787;53.364;-1.480;2023-02-13T07:24:58;6.50;99.90
21259;DHT22;10787;53.364;-1.480;2023-02-13T07:27:25;6.60;99.90
21259;DHT22;10787;53.364;-1.480;2023-02-13T07:29:51;6.60;99.90
21259;DHT22;10787;53.364;-1.480;2023-02-13T07:32:17;6.60;99.90
21259;DHT22;10787;53.364;-1.480;2023-02-13T07:34:43;6.60;99.90
21259;DHT22;10787;53.364;-1.480;2023-02-13T07:37:09;6.60;99.90
21259;DHT22;10787;53.364;-1.480;2023-02-13T07:39:35;6.50;99.90
21259;DHT22;10787;53.364;-1.480;2023-02-13T07:42:04;6.50;99.90
21259;DHT22;10787;53.364;-1.480;2023-02-13T07:44:30;6.60;99.90
21259;DHT22;10787;53.364;-1.480;2023-02-13T07:46:56;6.60;99.90
21259;DHT22;10787;53.364;-1.480;2023-02-13T07:49:22;6.60;99.90
21259;DHT22;10787;53.364;-1.480;2023-02-13T07:51:48;6.60;99.90
21259;DHT22;10787;53.364;-1.480;2023-02-13T07:54:14;6.60;99.90
21259;DHT22;10787;53.364;-1.480;2023-02-13T07:56:39;6.60;99.90
21259;DHT22;10787;53.364;-1.480;2023-02-13T07:59:05;6.70;99.90
21259;DHT22;10787;53.364;-1.480;2023-02-13T08:01:31;6.60;99.90
21259;DHT22;10787;53.364;-1.480;2023-02-13T08:03:56;6.60;99.90
21259;DHT22;10787;53.364;-1.480;2023-02-13T08:06:22;6.60;99.90
21259;DHT22;10787;53.364;-1.480;2023-02-13T08:08:48;6.60;99.90
21259;DHT22;10787;53.364;-1.480;2023-02-13T08:11:34;6.60;99.90
21259;DHT22;10787;53.364;-1.480;2023-02-13T08:14:22;6.70;99.90
21259;DHT22;10787;53.364;-1.480;2023-02-13T08:16:49;6.70;99.90
21259;DHT22;10787;53.364;-1.480;2023-02-13T08:19:14;6.70;99.90
21259;DHT22;10787;53.364;-1.480;2023-02-13T08:21:40;6.70;99.90
21259;DHT22;10787;53.364;-1.480;2023-02-13T08:24:06;6.70;99.90
21259;DHT22;10787;53.364;-1.480;2023-02-13T08:26:33;6.70;99.90
21259;DHT22;10787;53.364;-1.480;2023-02-13T08:28:59;6.70;99.90
21259;DHT22;10787;53.364;-1.480;2023-02-13T08:31:25;6.70;99.90
21259;DHT22;10787;53.364;-1.480;2023-02-13T08:33:50;6.70;99.90
21259;DHT22;10787;53.364;-1.480;2023-02-13T08:36:16;6.70;99.90
21259;DHT22;10787;53.364;-1.480;2023-02-13T08:38:46;6.70;99.90
21259;DHT22;10787;53.364;-1.480;2023-02-13T08:41:12;6.70;99.90
21259;DHT22;10787;53.364;-1.480;2023-02-13T08:43:38;6.70;99.90
21259;DHT22;10787;53.364;-1.480;2023-02-13T08:46:04;6.80;99.90
21259;DHT22;10787;53.364;-1.480;2023-02-13T08:48:30;6.80;99.90
21259;DHT22;10787;53.364;-1.480;2023-02-13T08:50:56;6.70;99.90
21259;DHT22;10787;53.364;-1.480;2023-02-13T08:53:22;6.70;99.90
21259;DHT22;10787;53.364;-1.480;2023-02-13T08:55:55;6.80;99.90
21259;DHT22;10787;53.364;-1.480;2023-02-13T08:58:21;6.80;99.90
21259;DHT22;10787;53.364;-1.480;2023-02-13T09:00:47;6.80;99.90
21259;DHT22;10787;53.364;-1.480;2023-02-13T09:03:13;6.80;99.90
21259;DHT22;10787;53.364;-1.480;2023-02-13T09:05:38;6.80;99.90
21259;DHT22;10787;53.364;-1.480;2023-02-13T09:08:04;6.90;99.90
21259;DHT22;10787;53.364;-1.480;2023-02-13T09:10:31;6.90;99.90
21259;DHT22;10787;53.364;-1.480;2023-02-13T09:12:57;6.90;99.90
21259;DHT22;10787;53.364;-1.480;2023-02-13T09:15:23;6.80;99.90
21259;DHT22;10787;53.364;-1.480;2023-02-13T09:17:49;6.80;99.90
21259;DHT22;10787;53.364;-1.480;2023-02-13T09:20:14;6.80;99.90
21259;DHT22;10787;53.364;-1.480;2023-02-13T09:22:41;6.90;99.90
21259;DHT22;10787;53.364;-1.480;2023-02-13T09:25:07;6.90;99.90
21259;DHT22;10787;53.364;-1.480;2023-02-13T09:27:34;7.00;99.90
21259;DHT22;10787;53.364;-1.480;2023-02-13T09:30:00;7.00;99.90
21259;DHT22;10787;53.364;-1.480;2023-02-13T09:32:26;7.00;99.90
21259;DHT22;10787;53.364;-1.480;2023-02-13T09:34:52;7.00;99.90
21259;DHT22;10787;53.364;-1.480;2023-02-13T09:37:18;7.00;99.90
21259;DHT22;10787;53.364;-1.480;2023-02-13T09:39:43;7.00;99.90
21259;DHT22;10787;53.364;-1.480;2023-02-13T09:42:22;7.00;99.90
21259;DHT22;10787;53.364;-1.480;2023-02-13T09:44:57;7.00;99.90
21259;DHT22;10787;53.364;-1.480;2023-02-13T09:47:43;7.00;99.90
21259;DHT22;10787;53.364;-1.480;2023-02-13T09:50:23;7.10;99.90
21259;DHT22;10787;53.364;-1.480;2023-02-13T09:52:51;7.10;99.90
21259;DHT22;10787;53.364;-1.480;2023-02-13T09:55:26;7.20;99.90
21259;DHT22;10787;53.364;-1.480;2023-02-13T09:58:04;7.20;99.90
21259;DHT22;10787;53.364;-1.480;2023-02-13T10:00:40;7.30;99.90
21259;DHT22;10787;53.364;-1.480;2023-02-13T10:03:20;7.30;99.90
21259;DHT22;10787;53.364;-1.480;2023-02-13T10:06:08;7.30;99.90
21259;DHT22;10787;53.364;-1.480;2023-02-13T10:12:00;7.40;99.90
21259;DHT22;10787;53.364;-1.480;2023-02-13T10:14:31;7.50;99.90
21259;DHT22;10787;53.364;-1.480;2023-02-13T10:17:20;7.50;99.90
21259;DHT22;10787;53.364;-1.480;2023-02-13T10:19:49;7.40;99.90
21259;DHT22;10787;53.364;-1.480;2023-02-13T10:22:17;7.30;99.90
21259;DHT22;10787;53.364;-1.480;2023-02-13T10:24:48;7.30;99.90
21259;DHT22;10787;53.364;-1.480;2023-02-13T10:27:54;7.30;99.90
21259;DHT22;10787;53.364;-1.480;2023-02-13T10:38:32;7.70;99.90
21259;DHT22;10787;53.364;-1.480;2023-02-13T10:43:44;7.70;99.90
21259;DHT22;10787;53.364;-1.480;2023-02-13T10:46:20;7.80;99.90
21259;DHT22;10787;53.364;-1.480;2023-02-13T10:51:39;8.00;99.90
21259;DHT22;10787;53.364;-1.480;2023-02-13T10:57:00;8.20;99.90
21259;DHT22;10787;53.364;-1.480;2023-02-13T11:02:23;8.40;99.90
21259;DHT22;10787;53.364;-1.480;2023-02-13T11:04:59;8.50;99.90
21259;DHT22;10787;53.364;-1.480;2023-02-13T11:07:25;8.60;99.90
21259;DHT22;10787;53.364;-1.480;2023-02-13T11:09:55;8.60;99.90
21259;DHT22;10787;53.364;-1.480;2023-02-13T11:12:29;8.70;99.90
21259;DHT22;10787;53.364;-1.480;2023-02-13T11:14:58;8.80;99.90
21259;DHT22;10787;53.364;-1.480;2023-02-13T11:17:26;8.80;99.90
21259;DHT22;10787;53.364;-1.480;2023-02-13T11:19:58;8.90;99.90
21259;DHT22;10787;53.364;-1.480;2023-02-13T11:22:37;8.90;99.90
21259;DHT22;10787;53.364;-1.480;2023-02-13T11:25:17;8.80;99.90
21259;DHT22;10787;53.364;-1.480;2023-02-13T11:27:44;8.80;99.90
21259;DHT22;10787;53.364;-1.480;2023-02-13T11:32:59;9.10;99.90
21259;DHT22;10787;53.364;-1.480;2023-02-13T11:35:48;9.20;99.90
21259;DHT22;10787;53.364;-1.480;2023-02-13T11:38:19;9.20;99.90
21259;DHT22;10787;53.364;-1.480;2023-02-13T11:40:50;9.30;99.90
21259;DHT22;10787;53.364;-1.480;2023-02-13T11:43:30;9.30;99.90
21259;DHT22;10787;53.364;-1.480;2023-02-13T11:46:16;9.30;99.90
21259;DHT22;10787;53.364;-1.480;2023-02-13T11:48:43;9.20;99.90
21259;DHT22;10787;53.364;-1.480;2023-02-13T11:51:39;9.40;99.90
21259;DHT22;10787;53.364;-1.480;2023-02-13T11:54:16;10.00;99.90
21259;DHT22;10787;53.364;-1.480;2023-02-13T11:56:49;10.30;99.90
21259;DHT22;10787;53.364;-1.480;2023-02-13T11:59:26;10.40;99.90
21259;DHT22;10787;53.364;-1.480;2023-02-13T12:02:21;11.10;99.90
21259;DHT22;10787;53.364;-1.480;2023-02-13T12:04:50;12.30;99.90
21259;DHT22;10787;53.364;-1.480;2023-02-13T12:07:30;13.10;99.90
21259;DHT22;10787;53.364;-1.480;2023-02-13T12:10:29;13.50;99.90
21259;DHT22;10787;53.364;-1.480;2023-02-13T12:13:36;14.20;99.90
21259;DHT22;10787;53.364;-1.480;2023-02-13T12:16:54;14.60;99.90
21259;DHT22;10787;53.364;-1.480;2023-02-13T12:19:04;14.90;99.90
21259;DHT22;10787;53.364;-1.480;2023-02-13T12:21:51;14.40;99.90
21259;DHT22;10787;53.364;-1.480;2023-02-13T12:24:33;13.90;99.90
21259;DHT22;10787;53.364;-1.480;2023-02-13T12:32:18;15.20;99.90
21259;DHT22;10787;53.364;-1.480;2023-02-13T12:43:06;18.00;99.90
21259;DHT22;10787;53.364;-1.480;2023-02-13T12:45:50;17.70;99.90
21259;DHT22;10787;53.364;-1.480;2023-02-13T12:51:59;18.20;99.90
21259;DHT22;10787;53.364;-1.480;2023-02-13T12:54:13;19.00;99.90
21259;DHT22;10787;53.364;-1.480;2023-02-13T13:22:49;21.90;99.90
21259;DHT22;10787;53.364;-1.480;2023-02-13T13:27:57;21.20;99.90
21259;DHT22;10787;53.364;-1.480;2023-02-13T13:30:32;20.50;99.90
21259;DHT22;10787;53.364;-1.480;2023-02-13T13:33:03;20.80;99.90
21259;DHT22;10787;53.364;-1.480;2023-02-13T13:35:32;21.40;99.90
21259;DHT22;10787;53.364;-1.480;2023-02-13T13:38:31;21.50;99.90
21259;DHT22;10787;53.364;-1.480;2023-02-13T13:41:26;22.10;99.90
21259;DHT22;10787;53.364;-1.480;2023-02-13T13:44:25;22.30;99.90
21259;DHT22;10787;53.364;-1.480;2023-02-13T13:49:56;21.70;99.90
21259;DHT22;10787;53.364;-1.480;2023-02-13T13:52:28;21.90;99.90
21259;DHT22;10787;53.364;-1.480;2023-02-13T13:54:55;21.80;99.90
21259;DHT22;10787;53.364;-1.480;2023-02-13T14:05:22;21.40;99.90
21259;DHT22;10787;53.364;-1.480;2023-02-13T14:08:02;21.30;99.90
21259;DHT22;10787;53.364;-1.480;2023-02-13T14:13:00;21.70;99.90
21259;DHT22;10787;53.364;-1.480;2023-02-13T14:18:20;23.00;99.90
21259;DHT22;10787;53.364;-1.480;2023-02-13T14:20:55;23.20;99.90
21259;DHT22;10787;53.364;-1.480;2023-02-13T14:23:46;23.10;99.90
21259;DHT22;10787;53.364;-1.480;2023-02-13T14:26:20;23.50;99.90
21259;DHT22;10787;53.364;-1.480;2023-02-13T14:31:42;23.10;99.90
21259;DHT22;10787;53.364;-1.480;2023-02-13T14:36:45;22.50;99.90
21259;DHT22;10787;53.364;-1.480;2023-02-13T14:46:53;23.00;99.90
21259;DHT22;10787;53.364;-1.480;2023-02-13T14:49:29;22.20;99.90
21259;DHT22;10787;53.364;-1.480;2023-02-13T14:51:58;22.50;99.90
21259;DHT22;10787;53.364;-1.480;2023-02-13T14:54:32;22.20;99.90
21259;DHT22;10787;53.364;-1.480;2023-02-13T14:57:05;22.30;99.90
21259;DHT22;10787;53.364;-1.480;2023-02-13T14:59:37;22.30;99.90
21259;DHT22;10787;53.364;-1.480;2023-02-13T15:02:14;22.00;99.90
21259;DHT22;10787;53.364;-1.480;2023-02-13T15:04:44;21.60;99.90
21259;DHT22;10787;53.364;-1.480;2023-02-13T15:07:19;21.80;99.90
21259;DHT22;10787;53.364;-1.480;2023-02-13T15:09:52;21.40;99.90
21259;DHT22;10787;53.364;-1.480;2023-02-13T15:12:35;21.50;99.90
21259;DHT22;10787;53.364;-1.480;2023-02-13T15:15:04;22.00;99.90
21259;DHT22;10787;53.364;-1.480;2023-02-13T15:17:42;21.50;99.90
21259;DHT22;10787;53.364;-1.480;2023-02-13T15:20:22;21.60;99.90
21259;DHT22;10787;53.364;-1.480;2023-02-13T15:22:48;21.20;99.90
21259;DHT22;10787;53.364;-1.480;2023-02-13T15:27:51;21.70;99.90
21259;DHT22;10787;53.364;-1.480;2023-02-13T15:30:28;21.80;99.90
21259;DHT22;10787;53.364;-1.480;2023-02-13T15:33:17;22.00;99.90
21259;DHT22;10787;53.364;-1.480;2023-02-13T15:35:44;22.10;99.90
21259;DHT22;10787;53.364;-1.480;2023-02-13T15:38:29;22.10;99.90
21259;DHT22;10787;53.364;-1.480;2023-02-13T15:43:55;21.20;99.90
21259;DHT22;10787;53.364;-1.480;2023-02-13T15:46:29;21.10;99.90
21259;DHT22;10787;53.364;-1.480;2023-02-13T15:48:58;20.90;99.90
21259;DHT22;10787;53.364;-1.480;2023-02-13T15:51:27;20.40;99.90
21259;DHT22;10787;53.364;-1.480;2023-02-13T15:53:59;20.20;99.90
21259;DHT22;10787;53.364;-1.480;2023-02-13T15:56:25;19.50;99.90
21259;DHT22;10787;53.364;-1.480;2023-02-13T15:58:53;18.90;99.90
21259;DHT22;10787;53.364;-1.480;2023-02-13T16:01:19;19.00;99.90
21259;DHT22;10787;53.364;-1.480;2023-02-13T16:03:47;18.80;99.90
21259;DHT22;10787;53.364;-1.480;2023-02-13T16:06:15;18.80;99.90
21259;DHT22;10787;53.364;-1.480;2023-02-13T16:08:54;18.60;99.90
21259;DHT22;10787;53.364;-1.480;2023-02-13T16:11:36;17.60;99.90
21259;DHT22;10787;53.364;-1.480;2023-02-13T16:14:19;16.40;99.90
21259;DHT22;10787;53.364;-1.480;2023-02-13T16:17:00;14.90;99.90
21259;DHT22;10787;53.364;-1.480;2023-02-13T16:22:17;13.20;99.90
21259;DHT22;10787;53.364;-1.480;2023-02-13T16:24:50;12.50;99.90
21259;DHT22;10787;53.364;-1.480;2023-02-13T16:27:19;11.80;99.90
21259;DHT22;10787;53.364;-1.480;2023-02-13T16:30:06;11.40;99.90
21259;DHT22;10787;53.364;-1.480;2023-02-13T16:32:34;11.00;99.90
21259;DHT22;10787;53.364;-1.480;2023-02-13T16:35:29;10.70;99.90
21259;DHT22;10787;53.364;-1.480;2023-02-13T16:37:58;10.40;99.90
21259;DHT22;10787;53.364;-1.480;2023-02-13T16:40:42;10.10;99.90
21259;DHT22;10787;53.364;-1.480;2023-02-13T16:43:40;10.00;99.90
21259;DHT22;10787;53.364;-1.480;2023-02-13T16:51:42;9.60;99.90
21259;DHT22;10787;53.364;-1.480;2023-02-13T16:54:28;9.40;99.90
21259;DHT22;10787;53.364;-1.480;2023-02-13T16:57:17;9.30;99.90
21259;DHT22;10787;53.364;-1.480;2023-02-13T17:00:02;9.30;99.90
21259;DHT22;10787;53.364;-1.480;2023-02-13T17:02:36;9.20;99.90
21259;DHT22;10787;53.364;-1.480;2023-02-13T17:07:50;8.90;99.90
21259;DHT22;10787;53.364;-1.480;2023-02-13T17:13:00;8.60;99.90
21259;DHT22;10787;53.364;-1.480;2023-02-13T17:15:29;8.50;99.90
21259;DHT22;10787;53.364;-1.480;2023-02-13T17:17:55;8.40;99.90
21259;DHT22;10787;53.364;-1.480;2023-02-13T17:20:27;8.30;99.90
21259;DHT22;10787;53.364;-1.480;2023-02-13T17:22:57;8.30;99.90
21259;DHT22;10787;53.364;-1.480;2023-02-13T17:25:34;8.20;99.90
21259;DHT22;10787;53.364;-1.480;2023-02-13T17:28:22;8.20;99.90
21259;DHT22;10787;53.364;-1.480;2023-02-13T17:30:50;8.20;99.90
21259;DHT22;10787;53.364;-1.480;2023-02-13T17:33:30;8.10;99.90
21259;DHT22;10787;53.364;-1.480;2023-02-13T17:35:58;8.10;99.90
21259;DHT22;10787;53.364;-1.480;2023-02-13T17:38:24;8.00;99.90
21259;DHT22;10787;53.364;-1.480;2023-02-13T17:40:50;7.90;99.90
21259;DHT22;10787;53.364;-1.480;2023-02-13T17:43:17;7.80;99.90
21259;DHT22;10787;53.364;-1.480;2023-02-13T17:45:45;7.80;99.90
21259;DHT22;10787;53.364;-1.480;2023-02-13T17:48:11;7.70;99.90
21259;DHT22;10787;53.364;-1.480;2023-02-13T17:50:37;7.70;99.90
21259;DHT22;10787;53.364;-1.480;2023-02-13T17:53:05;7.70;99.90
21259;DHT22;10787;53.364;-1.480;2023-02-13T17:55:33;7.70;99.90
21259;DHT22;10787;53.364;-1.480;2023-02-13T17:57:59;7.60;99.90
21259;DHT22;10787;53.364;-1.480;2023-02-13T18:00:27;7.60;99.90
21259;DHT22;10787;53.364;-1.480;2023-02-13T18:02:54;7.50;99.90
21259;DHT22;10787;53.364;-1.480;2023-02-13T18:05:21;7.50;99.90
21259;DHT22;10787;53.364;-1.480;2023-02-13T18:07:47;7.40;99.90
21259;DHT22;10787;53.364;-1.480;2023-02-13T18:10:18;7.40;99.90
21259;DHT22;10787;53.364;-1.480;2023-02-13T18:12:44;7.40;99.90
21259;DHT22;10787;53.364;-1.480;2023-02-13T18:15:11;7.30;99.90
21259;DHT22;10787;53.364;-1.480;2023-02-13T18:17:37;7.30;99.90
21259;DHT22;10787;53.364;-1.480;2023-02-13T18:20:05;7.20;99.90
21259;DHT22;10787;53.364;-1.480;2023-02-13T18:22:30;7.10;99.90
21259;DHT22;10787;53.364;-1.480;2023-02-13T18:24:56;7.00;99.90
21259;DHT22;10787;53.364;-1.480;2023-02-13T18:27:22;7.00;99.90
21259;DHT22;10787;53.364;-1.480;2023-02-13T18:29:49;6.90;99.90
21259;DHT22;10787;53.364;-1.480;2023-02-13T18:32:15;6.90;99.90
21259;DHT22;10787;53.364;-1.480;2023-02-13T18:34:41;6.90;99.90
21259;DHT22;10787;53.364;-1.480;2023-02-13T18:37:07;6.90;99.90
21259;DHT22;10787;53.364;-1.480;2023-02-13T18:39:33;6.90;99.90
21259;DHT22;10787;53.364;-1.480;2023-02-13T18:41:59;6.90;99.90